Главная страница
METAR-TAF:

METAR-TAF

Аэропорты :

Quakertown Airport

Quakertown, Пенсильвания, США

широта: 40-26-06N, долгота: 075-22-54W, высота над уровнем моря: 160 м

Текущие метеонаблюдения

Эта сводка был подготовлена 23 минут назад, в 02:20 UTC
Ветер 6 Узел переменных направлений, изменяющийся между западно-северо-западный и северный
Температура -4°C
Влажность 46%
Давление 1022 hPa
Видимость: 16.1 км
ясное небо

METAR: KUKT 130220Z AUTO VRB06KT 300V010 10SM CLR M04/M14 A3019 RMK A01

Время: 21:43 (02:43 UTC)


TAF: отсутствует

Метеонаблюдения и прогнозы для более 4000 аэропортов (сводки METAR и TAF).

Имеющиеся станции представлены на карте желтыми и красными точками.

Чтобы увидеть название станции, наведите на нее мышь.

Затем щелкните, чтобы увидеть метеонаблюдения и метеопрогнозы.

Управление картой: чтобы увеличить масштаб, щелкните зеленые кнопки с черным крестиком; чтобы уменьшить масштаб, щелкните зеленую кнопку с тире; для просмотра соседних карт щелкайте зеленые стрелки.


METAR-TAF: